Time;durP1;ratioP1;P1;durP2;ratioP2;P2;SDS_P1;SDS_P2;PMS_P1;PMS_P2;Temp;Humidity;BMP_temperature;BMP_pressure;BME280_temperature;BME280_humidity;BME280_pressure;Samples;Min_cycle;Max_cycle;Signal;HPM_P1;HPM_P2
2023/07/28 00:02:04;;;;;;;542.47;298.15;;;;;;;;;;5087376;28;20803;-71
2023/07/28 00:04:37;;;;;;;521.40;279.20;;;;;;;;;;5079487;28;20433;-71
2023/07/28 00:07:05;;;;;;;517.55;268.67;;;;;;;;;;5099125;28;20483;-71
2023/07/28 00:09:32;;;;;;;520.42;278.65;;;;;;;;;;5098321;28;20423;-71
2023/07/28 00:11:59;;;;;;;522.38;294.25;;;;;;;;;;5088437;28;20428;-71
2023/07/28 00:14:29;;;;;;;525.35;303.88;;;;;;;;;;5083012;28;20426;-71
2023/07/28 00:16:57;;;;;;;528.78;321.00;;;;;;;;;;5083218;28;20422;-71
2023/07/28 00:19:25;;;;;;;539.15;350.60;;;;;;;;;;5078870;28;20482;-71
2023/07/28 00:21:52;;;;;;;531.67;334.52;;;;;;;;;;5076650;28;20429;-71
2023/07/28 00:24:19;;;;;;;524.25;303.67;;;;;;;;;;5088067;28;20438;-71
2023/07/28 00:26:46;;;;;;;525.03;307.70;;;;;;;;;;5111685;28;21180;-71
2023/07/28 00:29:15;;;;;;;547.97;330.27;;;;;;;;;;5094996;28;20439;-71
2023/07/28 00:31:43;;;;;;;521.38;297.50;;;;;;;;;;5083223;28;20448;-71
2023/07/28 00:34:10;;;;;;;508.98;254.10;;;;;;;;;;5095411;28;20449;-71
2023/07/28 00:36:37;;;;;;;507.58;254.75;;;;;;;;;;5078563;28;20424;-71
2023/07/28 00:39:05;;;;;;;513.10;251.00;;;;;;;;;;5089295;28;20440;-71
2023/07/28 00:41:32;;;;;;;509.40;254.82;;;;;;;;;;5078996;28;20436;-71
2023/07/28 00:43:59;;;;;;;507.67;251.27;;;;;;;;;;5085834;28;20516;-71
2023/07/28 00:46:26;;;;;;;508.70;251.20;;;;;;;;;;5072354;28;20434;-71
2023/07/28 00:48:54;;;;;;;512.38;259.90;;;;;;;;;;5095436;28;20535;-71
2023/07/28 00:51:24;;;;;;;509.63;252.07;;;;;;;;;;5074128;28;20431;-71
2023/07/28 00:53:53;;;;;;;508.42;252.85;;;;;;;;;;5079154;28;20477;-71
2023/07/28 00:56:23;;;;;;;510.15;257.40;;;;;;;;;;5095298;28;20426;-72
2023/07/28 00:58:50;;;;;;;506.35;246.45;;;;;;;;;;5083512;28;20493;-71
2023/07/28 01:01:18;;;;;;;509.90;256.30;;;;;;;;;;5089581;28;20438;-71
2023/07/28 01:03:46;;;;;;;505.80;247.25;;;;;;;;;;5071501;28;20434;-71
2023/07/28 01:06:31;;;;;;;511.35;259.05;;;;;;;;;;5088326;28;20440;-71
2023/07/28 01:09:03;;;;;;;515.30;269.40;;;;;;;;;;5068940;28;20505;-71
2023/07/28 01:11:30;;;;;;;524.45;263.80;;;;;;;;;;5082311;28;20500;-71
2023/07/28 01:13:58;;;;;;;511.83;250.70;;;;;;;;;;5072363;28;20448;-72
2023/07/28 01:16:25;;;;;;;514.67;248.23;;;;;;;;;;5070025;28;20594;-71
2023/07/28 01:18:52;;;;;;;527.47;262.70;;;;;;;;;;5077782;28;20422;-71
2023/07/28 01:21:25;;;;;;;539.70;287.33;;;;;;;;;;5073392;28;20438;-71
2023/07/28 01:24:09;;;;;;;530.80;266.92;;;;;;;;;;5074016;28;20868;-71
2023/07/28 01:26:37;;;;;;;526.10;268.58;;;;;;;;;;5089181;28;20478;-71
2023/07/28 01:29:05;;;;;;;521.70;265.60;;;;;;;;;;5093251;28;20437;-70
2023/07/28 01:31:32;;;;;;;533.33;285.27;;;;;;;;;;5090380;28;20437;-71
2023/07/28 01:34:00;;;;;;;523.78;277.80;;;;;;;;;;5105200;28;20894;-71
2023/07/28 01:36:27;;;;;;;537.03;302.75;;;;;;;;;;5070992;28;20942;-70
2023/07/28 01:38:54;;;;;;;525.85;269.60;;;;;;;;;;5069844;28;20447;-70
2023/07/28 01:41:24;;;;;;;522.60;261.35;;;;;;;;;;5080635;28;20515;-70
2023/07/28 01:43:51;;;;;;;507.88;244.68;;;;;;;;;;5085094;28;20433;-70
2023/07/28 01:46:19;;;;;;;520.27;265.97;;;;;;;;;;5089797;28;20494;-70
2023/07/28 01:48:46;;;;;;;516.45;256.48;;;;;;;;;;5091361;28;20432;-71
2023/07/28 01:51:13;;;;;;;510.70;252.53;;;;;;;;;;5076834;28;20514;-71
2023/07/28 01:53:41;;;;;;;512.13;259.75;;;;;;;;;;5068141;28;20508;-70
2023/07/28 01:56:08;;;;;;;508.20;246.20;;;;;;;;;;5085304;28;20444;-71
2023/07/28 01:58:35;;;;;;;507.08;244.93;;;;;;;;;;5076746;28;20424;-71
2023/07/28 02:01:02;;;;;;;507.77;252.73;;;;;;;;;;5087840;28;20541;-71
2023/07/28 02:03:29;;;;;;;514.23;261.87;;;;;;;;;;5054626;28;20923;-71
2023/07/28 02:05:56;;;;;;;507.00;235.73;;;;;;;;;;5081060;28;20418;-71
2023/07/28 02:08:24;;;;;;;506.23;236.50;;;;;;;;;;5074554;28;20425;-71
2023/07/28 02:10:51;;;;;;;510.30;254.27;;;;;;;;;;5052088;28;20444;-72
2023/07/28 02:13:18;;;;;;;509.90;241.80;;;;;;;;;;5084359;28;20534;-71
2023/07/28 02:15:45;;;;;;;513.63;255.20;;;;;;;;;;5086169;28;20483;-72
2023/07/28 02:18:12;;;;;;;515.08;260.42;;;;;;;;;;5085605;28;20537;-71
2023/07/28 02:20:40;;;;;;;514.72;240.75;;;;;;;;;;5091696;28;20437;-71
2023/07/28 02:23:07;;;;;;;515.17;252.25;;;;;;;;;;5082148;28;20777;-72
2023/07/28 02:25:34;;;;;;;524.60;265.70;;;;;;;;;;5066429;28;21026;-72
2023/07/28 02:28:01;;;;;;;521.03;252.93;;;;;;;;;;5094735;28;21021;-71
2023/07/28 02:30:28;;;;;;;516.28;256.38;;;;;;;;;;5106090;28;20439;-72
2023/07/28 02:32:58;;;;;;;520.85;259.27;;;;;;;;;;5093914;28;20511;-71
2023/07/28 02:35:26;;;;;;;521.15;268.15;;;;;;;;;;5075576;28;20425;-71
2023/07/28 02:37:53;;;;;;;514.30;255.55;;;;;;;;;;5081867;28;20514;-71
2023/07/28 02:40:20;;;;;;;525.05;287.30;;;;;;;;;;5083964;28;20528;-71
2023/07/28 02:42:47;;;;;;;517.20;262.63;;;;;;;;;;5086082;28;20509;-71
2023/07/28 02:45:14;;;;;;;510.67;256.50;;;;;;;;;;5080887;28;20437;-71
2023/07/28 02:47:42;;;;;;;513.20;256.73;;;;;;;;;;5091567;28;20919;-71
2023/07/28 02:50:09;;;;;;;511.83;257.63;;;;;;;;;;5107410;28;20431;-71
2023/07/28 02:52:36;;;;;;;518.15;267.67;;;;;;;;;;5080954;28;20436;-71
2023/07/28 02:55:04;;;;;;;521.23;271.00;;;;;;;;;;5078420;28;20420;-71
2023/07/28 02:57:34;;;;;;;519.42;263.33;;;;;;;;;;5092449;28;20421;-72
2023/07/28 03:00:01;;;;;;;511.55;249.63;;;;;;;;;;5067470;28;20514;-72
2023/07/28 03:02:28;;;;;;;517.85;269.48;;;;;;;;;;5090935;28;20456;-71
2023/07/28 03:04:56;;;;;;;514.05;256.52;;;;;;;;;;5095122;28;20427;-71
2023/07/28 03:07:25;;;;;;;517.42;257.85;;;;;;;;;;5092773;28;20425;-71
2023/07/28 03:09:55;;;;;;;512.70;247.57;;;;;;;;;;5095657;28;20437;-70
2023/07/28 03:12:22;;;;;;;510.80;243.80;;;;;;;;;;5092101;28;20463;-70
2023/07/28 03:14:50;;;;;;;508.75;243.30;;;;;;;;;;5094618;28;21210;-70
2023/07/28 03:17:20;;;;;;;502.27;232.13;;;;;;;;;;5070283;28;20461;-70
2023/07/28 03:19:47;;;;;;;502.50;234.38;;;;;;;;;;5091363;28;20435;-70
2023/07/28 03:22:14;;;;;;;502.43;235.80;;;;;;;;;;5081590;28;20479;-70
2023/07/28 03:24:47;;;;;;;499.20;230.30;;;;;;;;;;5090473;28;20430;-70
2023/07/28 03:27:14;;;;;;;498.92;236.90;;;;;;;;;;5085165;28;20433;-69
2023/07/28 03:29:42;;;;;;;498.30;233.93;;;;;;;;;;5095254;28;20444;-69
2023/07/28 03:32:09;;;;;;;495.58;416.25;;;;;;;;;;5080005;28;20459;-69
2023/07/28 03:34:36;;;;;;;523.75;278.35;;;;;;;;;;5071571;28;21211;-70
2023/07/28 03:37:03;;;;;;;541.40;298.52;;;;;;;;;;5083259;28;20422;-69
2023/07/28 03:39:31;;;;;;;555.95;318.77;;;;;;;;;;5087638;28;20437;-69
2023/07/28 03:41:58;;;;;;;545.17;300.13;;;;;;;;;;5084518;28;20526;-69
2023/07/28 03:44:25;;;;;;;537.08;280.63;;;;;;;;;;5088978;28;20526;-69
2023/07/28 03:46:53;;;;;;;536.30;277.65;;;;;;;;;;5092968;28;20416;-69
2023/07/28 03:49:20;;;;;;;524.65;259.38;;;;;;;;;;5097633;28;20513;-68
2023/07/28 03:51:47;;;;;;;519.50;265.15;;;;;;;;;;5091839;28;20784;-69
2023/07/28 03:54:14;;;;;;;508.02;248.40;;;;;;;;;;5108018;28;20424;-69
2023/07/28 03:56:42;;;;;;;520.88;256.88;;;;;;;;;;5083930;28;20479;-69
2023/07/28 03:59:09;;;;;;;508.02;241.82;;;;;;;;;;5071475;28;20430;-69
2023/07/28 04:01:36;;;;;;;506.35;246.50;;;;;;;;;;5078076;28;20525;-69
2023/07/28 04:04:04;;;;;;;497.17;235.73;;;;;;;;;;5089313;28;20517;-70
2023/07/28 04:06:41;;;;;;;494.52;225.52;;;;;;;;;;5094517;28;20423;-69
2023/07/28 04:09:12;;;;;;;493.20;232.10;;;;;;;;;;5099599;28;20436;-69
2023/07/28 04:11:39;;;;;;;486.23;210.93;;;;;;;;;;5098524;28;20479;-69
2023/07/28 04:14:12;;;;;;;493.67;228.57;;;;;;;;;;5082632;28;20512;-68
2023/07/28 04:16:39;;;;;;;494.05;228.32;;;;;;;;;;5085701;28;20425;-69
2023/07/28 04:19:07;;;;;;;526.42;279.65;;;;;;;;;;5089097;28;20428;-69
2023/07/28 04:21:34;;;;;;;511.35;260.88;;;;;;;;;;5083162;28;20464;-69
2023/07/28 04:24:01;;;;;;;508.88;316.17;;;;;;;;;;5076246;28;20437;-69
2023/07/28 04:26:29;;;;;;;515.42;262.85;;;;;;;;;;5057864;28;20439;-69
2023/07/28 04:28:56;;;;;;;501.20;243.93;;;;;;;;;;5091065;28;20810;-69
2023/07/28 04:31:23;;;;;;;509.25;260.30;;;;;;;;;;5083749;28;21087;-69
2023/07/28 04:33:51;;;;;;;497.58;239.40;;;;;;;;;;5092234;28;20430;-69
2023/07/28 04:36:18;;;;;;;502.60;241.13;;;;;;;;;;5087008;28;20461;-69
2023/07/28 04:38:45;;;;;;;504.90;249.85;;;;;;;;;;5087848;28;20428;-68
2023/07/28 04:41:13;;;;;;;509.98;254.88;;;;;;;;;;5090524;28;20816;-70
2023/07/28 04:43:40;;;;;;;512.33;260.92;;;;;;;;;;5088995;28;20437;-70
2023/07/28 04:46:07;;;;;;;504.73;264.58;;;;;;;;;;5086922;28;20429;-70
2023/07/28 04:48:34;;;;;;;507.52;263.27;;;;;;;;;;5087630;28;20432;-70
2023/07/28 04:51:01;;;;;;;506.63;259.77;;;;;;;;;;5103870;28;20434;-70
2023/07/28 04:53:28;;;;;;;510.97;264.60;;;;;;;;;;5087599;28;20878;-70
2023/07/28 04:55:59;;;;;;;503.33;249.77;;;;;;;;;;5087080;28;20432;-70
2023/07/28 04:58:26;;;;;;;510.85;265.15;;;;;;;;;;5091863;28;20429;-70
2023/07/28 05:00:54;;;;;;;517.58;277.55;;;;;;;;;;5088151;28;20425;-70
2023/07/28 05:03:21;;;;;;;528.47;298.15;;;;;;;;;;5082003;28;20450;-70
2023/07/28 05:05:48;;;;;;;529.40;295.17;;;;;;;;;;5081229;28;20485;-70
2023/07/28 05:08:15;;;;;;;557.78;376.83;;;;;;;;;;5092718;28;20425;-70
2023/07/28 05:10:43;;;;;;;573.97;370.88;;;;;;;;;;5084567;28;20432;-70
2023/07/28 05:13:10;;;;;;;378.02;352.23;;;;;;;;;;5087250;28;20436;-70
2023/07/28 05:15:37;;;;;;;556.33;501.70;;;;;;;;;;5093639;28;20511;-70
2023/07/28 05:18:04;;;;;;;606.53;474.53;;;;;;;;;;5074655;28;20785;-70
2023/07/28 05:20:31;;;;;;;575.55;497.02;;;;;;;;;;5087917;28;20424;-70
2023/07/28 05:23:01;;;;;;;467.77;418.35;;;;;;;;;;5086782;28;20449;-70
2023/07/28 05:25:28;;;;;;;611.10;435.08;;;;;;;;;;5084697;28;20430;-70
2023/07/28 05:27:56;;;;;;;601.92;404.95;;;;;;;;;;5086517;28;20428;-70
2023/07/28 05:30:23;;;;;;;612.03;410.55;;;;;;;;;;5088959;28;20430;-70
2023/07/28 05:32:55;;;;;;;630.53;441.90;;;;;;;;;;5088868;28;20437;-70
2023/07/28 05:35:22;;;;;;;651.13;476.03;;;;;;;;;;5085667;28;20430;-70
2023/07/28 05:37:49;;;;;;;690.15;550.97;;;;;;;;;;5088597;28;20480;-70
2023/07/28 05:40:17;;;;;;;641.95;442.35;;;;;;;;;;5070798;28;20449;-70
2023/07/28 05:42:44;;;;;;;635.80;442.83;;;;;;;;;;5082331;28;20424;-70
2023/07/28 05:45:11;;;;;;;653.13;472.75;;;;;;;;;;5093302;28;20454;-70
2023/07/28 05:47:39;;;;;;;640.58;441.10;;;;;;;;;;5083220;28;20444;-70
2023/07/28 05:50:09;;;;;;;656.78;443.90;;;;;;;;;;5076948;28;20462;-70
2023/07/28 05:52:36;;;;;;;643.33;438.33;;;;;;;;;;5086359;28;20483;-70
2023/07/28 05:55:06;;;;;;;625.67;400.65;;;;;;;;;;5083330;28;20515;-70
2023/07/28 05:57:33;;;;;;;657.25;436.98;;;;;;;;;;5057578;28;20981;-70
2023/07/28 06:00:01;;;;;;;723.45;534.05;;;;;;;;;;5083197;28;20516;-70
2023/07/28 06:02:28;;;;;;;749.17;557.90;;;;;;;;;;5081662;28;20430;-70
2023/07/28 06:04:55;;;;;;;750.83;563.50;;;;;;;;;;5086818;28;21060;-70
2023/07/28 06:07:23;;;;;;;762.03;565.13;;;;;;;;;;5061494;28;20495;-68
2023/07/28 06:09:55;;;;;;;770.72;566.80;;;;;;;;;;5073877;28;20559;-69
2023/07/28 06:12:23;;;;;;;867.78;700.80;;;;;;;;;;5067252;28;20804;-69
2023/07/28 06:14:50;;;;;;;200.02;181.73;;;;;;;;;;5087855;28;20429;-69
2023/07/28 06:17:17;;;;;;;865.58;676.45;;;;;;;;;;5087366;28;20519;-70
2023/07/28 06:19:45;;;;;;;845.90;648.50;;;;;;;;;;5070017;28;20425;-70
2023/07/28 06:22:12;;;;;;;796.83;608.17;;;;;;;;;;5093898;28;20430;-70
2023/07/28 06:24:39;;;;;;;809.90;617.65;;;;;;;;;;5074580;28;20502;-69
2023/07/28 06:27:08;;;;;;;847.13;656.17;;;;;;;;;;5086915;28;20434;-69
2023/07/28 06:29:36;;;;;;;838.45;721.58;;;;;;;;;;5096981;28;20426;-70
2023/07/28 06:32:03;;;;;;;860.20;668.08;;;;;;;;;;5085430;28;20434;-69
2023/07/28 06:34:30;;;;;;;832.28;632.20;;;;;;;;;;5091407;28;20422;-69
2023/07/28 06:37:03;;;;;;;861.75;661.95;;;;;;;;;;5087839;28;20916;-69
2023/07/28 06:39:31;;;;;;;416.57;379.40;;;;;;;;;;5075885;28;20463;-70
2023/07/28 06:41:58;;;;;;;658.33;600.92;;;;;;;;;;5091564;28;20450;-69
2023/07/28 06:44:25;;;;;;;883.38;801.63;;;;;;;;;;5085319;28;20426;-69
2023/07/28 06:46:52;;;;;;;906.85;814.50;;;;;;;;;;5080994;28;20429;-69
2023/07/28 06:49:19;;;;;;;1.35;1.25;;;;;;;;;;5080263;28;20494;-69
2023/07/28 06:51:47;;;;;;;889.17;709.28;;;;;;;;;;5084112;28;20439;-70
2023/07/28 06:54:14;;;;;;;872.15;692.53;;;;;;;;;;5087330;28;20521;-70
2023/07/28 06:56:41;;;;;;;868.13;689.17;;;;;;;;;;5063167;28;20490;-70
2023/07/28 06:59:08;;;;;;;866.43;683.60;;;;;;;;;;5085573;28;20482;-69
2023/07/28 07:01:45;;;;;;;858.10;669.88;;;;;;;;;;5095514;28;20461;-70
2023/07/28 07:04:13;;;;;;;867.60;674.83;;;;;;;;;;5088067;28;20429;-69
2023/07/28 07:06:40;;;;;;;862.85;676.47;;;;;;;;;;5092925;28;20436;-69
2023/07/28 07:09:10;;;;;;;862.70;657.17;;;;;;;;;;5082776;28;20448;-71
2023/07/28 07:11:37;;;;;;;859.38;646.10;;;;;;;;;;5083939;28;20427;-69
2023/07/28 07:14:05;;;;;;;866.93;648.53;;;;;;;;;;5091634;28;20430;-69
2023/07/28 07:16:32;;;;;;;853.63;652.25;;;;;;;;;;5084544;28;20509;-70
2023/07/28 07:18:59;;;;;;;857.67;648.17;;;;;;;;;;5095557;28;20503;-70
2023/07/28 07:21:28;;;;;;;853.55;641.17;;;;;;;;;;5075154;28;21224;-70
2023/07/28 07:23:55;;;;;;;862.35;648.58;;;;;;;;;;5084228;28;20452;-71
2023/07/28 07:26:22;;;;;;;887.30;661.15;;;;;;;;;;5082613;28;20536;-70
2023/07/28 07:28:49;;;;;;;849.53;645.67;;;;;;;;;;5084071;28;20460;-70
2023/07/28 07:31:16;;;;;;;851.33;624.08;;;;;;;;;;5084288;28;20504;-70
2023/07/28 07:33:44;;;;;;;845.80;624.22;;;;;;;;;;5085736;28;20437;-70
2023/07/28 07:36:14;;;;;;;848.75;624.55;;;;;;;;;;5108053;28;20450;-70
2023/07/28 07:38:42;;;;;;;863.60;646.65;;;;;;;;;;5074239;28;20523;-71
2023/07/28 07:41:12;;;;;;;862.33;646.00;;;;;;;;;;5081625;28;20512;-70
2023/07/28 07:43:41;;;;;;;865.80;651.50;;;;;;;;;;5077367;28;20439;-70
2023/07/28 07:46:08;;;;;;;864.70;650.05;;;;;;;;;;5081731;28;21621;-70
2023/07/28 07:48:35;;;;;;;866.35;651.38;;;;;;;;;;5085965;28;20436;-70
2023/07/28 07:51:03;;;;;;;873.90;651.25;;;;;;;;;;5088161;28;20512;-71
2023/07/28 07:53:30;;;;;;;852.22;633.10;;;;;;;;;;5063421;28;20422;-70
2023/07/28 07:55:58;;;;;;;857.08;648.63;;;;;;;;;;5086935;28;20432;-69
2023/07/28 07:58:25;;;;;;;840.85;628.35;;;;;;;;;;5077034;28;20430;-71
2023/07/28 08:00:55;;;;;;;834.95;617.90;;;;;;;;;;5088953;28;20488;-71
2023/07/28 08:03:26;;;;;;;842.85;624.25;;;;;;;;;;5080269;28;20430;-70
2023/07/28 08:05:54;;;;;;;848.53;643.87;;;;;;;;;;5086669;28;20454;-71
2023/07/28 08:08:21;;;;;;;842.05;639.70;;;;;;;;;;5102409;28;20443;-70
2023/07/28 08:10:49;;;;;;;844.95;640.95;;;;;;;;;;5106158;28;20425;-70
2023/07/28 08:13:16;;;;;;;854.63;654.70;;;;;;;;;;5097220;28;20431;-71
2023/07/28 08:15:47;;;;;;;849.97;649.03;;;;;;;;;;5097671;28;20490;-70
2023/07/28 08:18:14;;;;;;;857.78;651.65;;;;;;;;;;5081133;28;20477;-71
2023/07/28 08:20:41;;;;;;;862.90;657.15;;;;;;;;;;5077908;28;20520;-71
2023/07/28 08:23:09;;;;;;;863.17;662.47;;;;;;;;;;5078771;28;20904;-70
2023/07/28 08:25:36;;;;;;;864.28;661.25;;;;;;;;;;5083990;28;20446;-72
2023/07/28 08:28:04;;;;;;;865.42;664.80;;;;;;;;;;5086814;28;20437;-71
2023/07/28 08:30:31;;;;;;;872.78;675.78;;;;;;;;;;5091668;28;20492;-71
2023/07/28 08:32:59;;;;;;;873.53;673.15;;;;;;;;;;5094934;28;20511;-71
2023/07/28 08:35:27;;;;;;;866.30;673.42;;;;;;;;;;5092648;28;20438;-72
2023/07/28 08:37:54;;;;;;;890.45;694.38;;;;;;;;;;5078799;28;20841;-71
2023/07/28 08:40:22;;;;;;;896.40;704.25;;;;;;;;;;5091053;28;20968;-72
2023/07/28 08:42:49;;;;;;;889.45;693.53;;;;;;;;;;5098841;28;20452;-72
2023/07/28 08:45:18;;;;;;;913.83;725.60;;;;;;;;;;5089656;28;20934;-72
2023/07/28 08:47:45;;;;;;;896.65;707.55;;;;;;;;;;5096301;28;20416;-72
2023/07/28 08:50:13;;;;;;;893.30;704.42;;;;;;;;;;5100299;28;21103;-72
2023/07/28 08:52:40;;;;;;;887.15;693.50;;;;;;;;;;5104580;28;20417;-72
2023/07/28 08:55:09;;;;;;;895.38;708.92;;;;;;;;;;5091737;28;20937;-75
2023/07/28 08:57:39;;;;;;;888.42;705.38;;;;;;;;;;5067911;28;20479;-73
2023/07/28 09:00:13;;;;;;;886.58;704.00;;;;;;;;;;5087223;28;20920;-73
2023/07/28 09:02:41;;;;;;;889.63;705.17;;;;;;;;;;5096312;28;20501;-72
2023/07/28 09:05:17;;;;;;;884.92;700.05;;;;;;;;;;5088094;28;20540;-74
2023/07/28 09:07:47;;;;;;;882.50;699.70;;;;;;;;;;5089926;28;20483;-73
2023/07/28 09:10:14;;;;;;;888.05;716.03;;;;;;;;;;5095027;28;20426;-74
2023/07/28 09:12:49;;;;;;;881.80;706.92;;;;;;;;;;5093806;28;20428;-73
2023/07/28 09:15:20;;;;;;;885.95;709.38;;;;;;;;;;5092277;28;20418;-75
2023/07/28 09:17:48;;;;;;;890.88;711.22;;;;;;;;;;5094944;28;20517;-74
2023/07/28 09:20:16;;;;;;;898.77;724.40;;;;;;;;;;5087664;28;20499;-73
2023/07/28 09:22:43;;;;;;;899.25;731.00;;;;;;;;;;5088897;28;20432;-74
2023/07/28 09:25:15;;;;;;;910.88;745.25;;;;;;;;;;5079952;28;20432;-74
2023/07/28 09:27:54;;;;;;;932.35;782.50;;;;;;;;;;5083076;28;21118;-76
2023/07/28 09:30:25;;;;;;;921.80;761.83;;;;;;;;;;5080927;28;20434;-73
2023/07/28 09:32:54;;;;;;;922.20;763.22;;;;;;;;;;5077097;28;20831;-75
2023/07/28 09:35:22;;;;;;;905.50;744.95;;;;;;;;;;5098817;28;20470;-74
2023/07/28 09:37:50;;;;;;;910.35;747.63;;;;;;;;;;5089073;28;20429;-75
2023/07/28 09:40:21;;;;;;;909.90;741.13;;;;;;;;;;5082296;28;20898;-73
2023/07/28 09:42:49;;;;;;;909.63;746.00;;;;;;;;;;5099926;28;20458;-75
2023/07/28 09:45:21;;;;;;;904.17;734.28;;;;;;;;;;5087093;28;20426;-74
2023/07/28 09:48:07;;;;;;;902.95;723.10;;;;;;;;;;5102057;28;20438;-74
2023/07/28 09:50:34;;;;;;;901.83;727.88;;;;;;;;;;5093558;28;20557;-72
2023/07/28 09:53:03;;;;;;;899.22;720.50;;;;;;;;;;5099283;28;20442;-72
2023/07/28 09:55:30;;;;;;;887.30;701.53;;;;;;;;;;5091209;28;20930;-74
2023/07/28 09:57:59;;;;;;;893.45;717.00;;;;;;;;;;5088602;28;20445;-74
2023/07/28 10:00:27;;;;;;;889.67;705.22;;;;;;;;;;5081693;28;20433;-74
2023/07/28 10:02:54;;;;;;;883.65;696.53;;;;;;;;;;5088756;28;20429;-75
2023/07/28 10:05:22;;;;;;;888.65;705.15;;;;;;;;;;5092858;28;20420;-76
2023/07/28 10:07:49;;;;;;;907.42;729.15;;;;;;;;;;5095224;28;20426;-77
2023/07/28 10:10:17;;;;;;;894.22;713.35;;;;;;;;;;5088250;28;20428;-75
2023/07/28 10:12:48;;;;;;;886.42;707.03;;;;;;;;;;5105714;28;20453;-77
2023/07/28 10:15:16;;;;;;;894.90;711.78;;;;;;;;;;5098190;28;20478;-77
2023/07/28 10:17:47;;;;;;;888.13;707.30;;;;;;;;;;5109839;28;20473;-74
2023/07/28 10:20:33;;;;;;;894.22;716.45;;;;;;;;;;5109563;28;20427;-71
2023/07/28 10:23:07;;;;;;;887.10;698.60;;;;;;;;;;5093770;28;20457;-76
2023/07/28 10:25:35;;;;;;;893.83;711.92;;;;;;;;;;5087763;28;20426;-76
2023/07/28 10:28:04;;;;;;;890.35;696.47;;;;;;;;;;5088686;28;20824;-76
2023/07/28 10:30:39;;;;;;;887.72;692.63;;;;;;;;;;5088472;28;20483;-75
2023/07/28 10:33:26;;;;;;;886.28;689.92;;;;;;;;;;5086269;28;20831;-74
2023/07/28 10:35:53;;;;;;;878.80;675.80;;;;;;;;;;5103809;28;20897;-76
2023/07/28 10:38:37;;;;;;;885.63;693.30;;;;;;;;;;5083416;28;20426;-75
2023/07/28 10:41:15;;;;;;;882.88;693.88;;;;;;;;;;5079588;28;20830;-76
2023/07/28 10:43:42;;;;;;;884.83;700.53;;;;;;;;;;5091697;28;20430;-76
2023/07/28 10:46:14;;;;;;;885.13;697.55;;;;;;;;;;5088339;28;20426;-76
2023/07/28 10:48:42;;;;;;;876.65;680.50;;;;;;;;;;5091516;28;20676;-76
2023/07/28 10:51:11;;;;;;;885.58;701.58;;;;;;;;;;5090703;28;20509;-72
2023/07/28 10:53:38;;;;;;;895.38;714.38;;;;;;;;;;5082885;28;20418;-74
2023/07/28 10:56:08;;;;;;;901.77;722.80;;;;;;;;;;5090589;28;20446;-76
2023/07/28 10:58:37;;;;;;;890.57;706.10;;;;;;;;;;5083398;28;20891;-76
2023/07/28 11:01:05;;;;;;;892.33;709.20;;;;;;;;;;5089707;28;20446;-76
2023/07/28 11:03:33;;;;;;;894.05;709.03;;;;;;;;;;5097577;28;20441;-75
2023/07/28 11:06:04;;;;;;;885.85;696.45;;;;;;;;;;5074337;28;20940;-73
2023/07/28 11:08:35;;;;;;;893.55;703.00;;;;;;;;;;5072467;28;20427;-76
2023/07/28 11:11:05;;;;;;;894.17;610.55;;;;;;;;;;5072793;28;20873;-73
2023/07/28 11:13:33;;;;;;;874.42;681.95;;;;;;;;;;5072521;28;20431;-77
2023/07/28 11:16:08;;;;;;;871.72;684.92;;;;;;;;;;5093239;28;20425;-74
2023/07/28 11:18:35;;;;;;;865.95;678.10;;;;;;;;;;5092655;28;20422;-78
2023/07/28 11:21:05;;;;;;;861.65;664.47;;;;;;;;;;5073846;28;20430;-76
2023/07/28 11:23:33;;;;;;;863.88;671.38;;;;;;;;;;5104680;28;20795;-74
2023/07/28 11:26:00;;;;;;;874.67;680.35;;;;;;;;;;5090661;28;20465;-74
2023/07/28 11:28:28;;;;;;;871.83;681.30;;;;;;;;;;5100535;28;20422;-75
2023/07/28 11:30:56;;;;;;;865.88;681.20;;;;;;;;;;5107265;28;20450;-79
2023/07/28 11:33:24;;;;;;;876.10;695.63;;;;;;;;;;5093796;28;20421;-75
2023/07/28 11:35:51;;;;;;;878.03;695.10;;;;;;;;;;5093215;28;20512;-75
2023/07/28 11:38:18;;;;;;;893.00;715.40;;;;;;;;;;5075494;28;20452;-72
2023/07/28 11:40:46;;;;;;;886.63;713.65;;;;;;;;;;5093882;28;20422;-74
2023/07/28 11:43:13;;;;;;;889.72;711.72;;;;;;;;;;5094356;28;20425;-74
2023/07/28 11:45:40;;;;;;;884.15;707.55;;;;;;;;;;5092266;28;20426;-75
2023/07/28 11:48:11;;;;;;;882.08;704.35;;;;;;;;;;5109338;28;20423;-74
2023/07/28 11:50:39;;;;;;;883.45;694.05;;;;;;;;;;5075949;28;20427;-74
2023/07/28 11:53:07;;;;;;;877.97;690.93;;;;;;;;;;5071568;28;20510;-75
2023/07/28 11:55:37;;;;;;;887.47;702.70;;;;;;;;;;5095394;28;20424;-77
2023/07/28 11:58:12;;;;;;;892.45;706.53;;;;;;;;;;5096182;28;20433;-77
2023/07/28 12:00:42;;;;;;;878.47;699.15;;;;;;;;;;5112793;28;20480;-77
2023/07/28 12:03:12;;;;;;;880.83;696.85;;;;;;;;;;5105966;28;20929;-77
2023/07/28 12:05:40;;;;;;;889.43;706.13;;;;;;;;;;5072013;28;20427;-76
2023/07/28 12:08:13;;;;;;;881.95;700.22;;;;;;;;;;5108405;28;20475;-79
2023/07/28 12:10:54;;;;;;;891.53;702.95;;;;;;;;;;5113552;28;20515;-78
2023/07/28 12:13:54;;;;;;;884.47;702.50;;;;;;;;;;5100364;28;20418;-78
2023/07/28 12:16:43;;;;;;;886.13;699.58;;;;;;;;;;5107374;28;20414;-77
2023/07/28 12:19:16;;;;;;;884.70;704.20;;;;;;;;;;5085638;28;20434;-77
2023/07/28 12:21:43;;;;;;;880.53;702.13;;;;;;;;;;5092699;28;20429;-77
2023/07/28 12:24:10;;;;;;;891.77;718.63;;;;;;;;;;5088851;28;20594;-78
2023/07/28 12:26:38;;;;;;;896.33;726.28;;;;;;;;;;5083226;28;20432;-76
2023/07/28 12:29:07;;;;;;;887.45;702.53;;;;;;;;;;5087206;28;20424;-76
2023/07/28 12:31:38;;;;;;;903.15;729.58;;;;;;;;;;5092621;28;20788;-77
2023/07/28 12:34:11;;;;;;;910.78;739.25;;;;;;;;;;5108682;28;20424;-78
2023/07/28 12:36:52;;;;;;;925.45;757.85;;;;;;;;;;5074281;28;20422;-72
2023/07/28 12:39:29;;;;;;;912.85;747.53;;;;;;;;;;5101333;28;20460;-76
2023/07/28 12:41:59;;;;;;;907.53;740.20;;;;;;;;;;5106330;28;20505;-77
2023/07/28 12:44:29;;;;;;;912.45;748.95;;;;;;;;;;5098483;28;20961;-76
2023/07/28 12:47:02;;;;;;;907.42;738.28;;;;;;;;;;5098840;28;20516;-77
2023/07/28 12:49:36;;;;;;;903.92;734.13;;;;;;;;;;5092747;28;20426;-76
2023/07/28 12:52:08;;;;;;;899.47;725.95;;;;;;;;;;5080636;28;20485;-75
2023/07/28 12:54:45;;;;;;;951.58;791.38;;;;;;;;;;5070448;28;20435;-77
2023/07/28 12:57:12;;;;;;;895.72;732.72;;;;;;;;;;5088190;28;20420;-75
2023/07/28 12:59:40;;;;;;;935.13;775.10;;;;;;;;;;5095760;28;20426;-78
2023/07/28 13:02:10;;;;;;;909.05;740.40;;;;;;;;;;5098750;28;20433;-78
2023/07/28 13:04:38;;;;;;;905.67;740.90;;;;;;;;;;5091002;28;20476;-78
2023/07/28 13:07:05;;;;;;;903.30;744.08;;;;;;;;;;5090946;28;20532;-74
2023/07/28 13:09:37;;;;;;;892.78;727.33;;;;;;;;;;5108181;28;20426;-78
2023/07/28 13:12:07;;;;;;;897.58;735.08;;;;;;;;;;5112853;28;20481;-79
2023/07/28 13:14:38;;;;;;;900.17;737.13;;;;;;;;;;5113646;28;20507;-79
2023/07/28 13:17:05;;;;;;;894.72;725.50;;;;;;;;;;5112373;28;20424;-77
2023/07/28 13:19:32;;;;;;;901.55;733.03;;;;;;;;;;5111935;28;20431;-75
2023/07/28 13:22:02;;;;;;;900.73;729.60;;;;;;;;;;5098344;28;20462;-77
2023/07/28 13:24:32;;;;;;;904.33;725.20;;;;;;;;;;5077228;28;20454;-78
2023/07/28 13:27:02;;;;;;;893.55;709.90;;;;;;;;;;5090024;28;20426;-76
2023/07/28 13:29:35;;;;;;;898.60;713.10;;;;;;;;;;5070256;28;20912;-76
2023/07/28 13:32:05;;;;;;;900.22;717.33;;;;;;;;;;5096389;28;20421;-77
2023/07/28 13:34:33;;;;;;;889.55;695.65;;;;;;;;;;5090657;28;20429;-76
2023/07/28 13:37:03;;;;;;;896.42;709.65;;;;;;;;;;5087933;28;20429;-74
2023/07/28 13:39:30;;;;;;;875.10;680.08;;;;;;;;;;5084274;28;20427;-74
2023/07/28 13:41:57;;;;;;;879.33;689.90;;;;;;;;;;5089205;28;20449;-73
2023/07/28 13:44:27;;;;;;;879.72;685.83;;;;;;;;;;5071690;28;20432;-75
2023/07/28 13:47:00;;;;;;;873.72;680.72;;;;;;;;;;5087894;28;20445;-75
2023/07/28 13:49:35;;;;;;;889.10;701.60;;;;;;;;;;5102237;28;20424;-77
2023/07/28 13:52:20;;;;;;;886.90;700.55;;;;;;;;;;5091444;28;20939;-76
2023/07/28 13:54:49;;;;;;;884.13;694.85;;;;;;;;;;5087789;28;20426;-74
2023/07/28 13:57:21;;;;;;;887.28;702.63;;;;;;;;;;5096137;28;20483;-78
2023/07/28 13:59:52;;;;;;;897.45;714.92;;;;;;;;;;5090767;28;20414;-74
2023/07/28 14:02:19;;;;;;;909.05;718.10;;;;;;;;;;5089237;28;20421;-79